Time;durP1;ratioP1;P1;durP2;ratioP2;P2;SDS_P1;SDS_P2;PMS_P1;PMS_P2;Temp;Humidity;BMP_temperature;BMP_pressure;BME280_temperature;BME280_humidity;BME280_pressure;Samples;Min_cycle;Max_cycle;Signal;HPM_P1;HPM_P2
2021/12/17 00:06:57;;;;;;;11.17;4.67;;;6.20;24.60;;;;;;5031775;28;20481;-71
2021/12/17 00:09:23;;;;;;;5.93;3.97;;;6.30;25.50;;;;;;5032741;28;20813;-72
2021/12/17 00:11:49;;;;;;;4.70;3.40;;;6.30;25.90;;;;;;5031899;28;20186;-74
2021/12/17 00:14:24;;;;;;;7.67;3.40;;;6.30;24.70;;;;;;5032208;28;20811;-70
2021/12/17 00:16:50;;;;;;;4.07;3.33;;;6.40;22.30;;;;;;5032388;28;20449;-73
2021/12/17 00:48:53;;;;;;;8.63;3.50;;;6.30;5.60;;;;;;5036319;28;20452;-71
2021/12/17 00:54:00;;;;;;;6.27;3.57;;;6.20;3.80;;;;;;5035302;28;20188;-73
2021/12/17 00:56:27;;;;;;;7.83;3.57;;;6.20;5.50;;;;;;5035566;28;20491;-75
2021/12/17 00:58:54;;;;;;;7.83;3.50;;;6.30;3.20;;;;;;5034091;28;20422;-72
2021/12/17 01:01:20;;;;;;;10.30;4.53;;;6.30;2.60;;;;;;5034269;28;20465;-71
2021/12/17 01:03:47;;;;;;;8.27;3.40;;;6.30;4.20;;;;;;5034908;28;20448;-72
2021/12/17 01:06:13;;;;;;;7.47;4.53;;;6.30;1.00;;;;;;5035312;28;20441;-74
2021/12/17 01:08:38;;;;;;;6.10;3.30;;;6.30;1.00;;;;;;5035759;28;20452;-74
2021/12/17 01:11:05;;;;;;;10.63;4.37;;;6.20;1.00;;;;;;5031106;28;20426;-74
2021/12/17 01:13:32;;;;;;;10.23;4.47;;;6.30;1.80;;;;;;5014761;28;20173;-74
2021/12/17 01:15:58;;;;;;;6.03;4.53;;;6.30;3.30;;;;;;5021540;28;20528;-71
2021/12/17 01:18:36;;;;;;;5.03;3.70;;;6.30;2.00;;;;;;5035534;28;20410;-74
2021/12/17 01:21:25;;;;;;;4.60;3.43;;;6.20;1.00;;;;;;5035256;28;20866;-71
2021/12/17 01:43:03;;;;;;;15.27;5.03;;;6.40;2.60;;;;;;5034381;28;20406;-72
2021/12/17 01:45:35;;;;;;;5.20;4.03;;;6.40;1.40;;;;;;5034606;28;20438;-72
2021/12/17 01:48:02;;;;;;;8.77;4.40;;;6.40;3.60;;;;;;5034825;28;20426;-75
2021/12/17 01:56:16;;;;;;;5.37;4.63;;;6.60;6.00;;;;;;5033115;28;20640;-74
2021/12/17 02:01:27;;;;;;;12.00;3.90;;;6.60;1.00;;;;;;5034433;28;20503;-71
2021/12/17 02:03:53;;;;;;;5.33;3.93;;;6.50;1.00;;;;;;5033832;28;20402;-74
2021/12/17 02:06:20;;;;;;;7.73;4.40;;;6.50;1.00;;;;;;5034168;28;20445;-71
2021/12/17 02:08:48;;;;;;;7.67;3.53;;;6.50;1.00;;;;;;5033951;28;20274;-75
2021/12/17 02:33:06;;;;;;;4.73;3.27;;;6.60;1.00;;;;;;5010732;28;20533;-72
2021/12/17 02:35:38;;;;;;;6.00;4.83;;;6.50;1.00;;;;;;5014199;28;20999;-74
2021/12/17 02:38:06;;;;;;;4.80;4.20;;;6.50;1.00;;;;;;5020716;28;20514;-73
2021/12/17 02:45:48;;;;;;;6.77;3.97;;;6.40;1.00;;;;;;5033398;28;20429;-75
2021/12/17 02:48:18;;;;;;;9.67;4.70;;;6.50;1.00;;;;;;5033204;28;20426;-74
2021/12/17 02:50:47;;;;;;;6.70;4.00;;;6.50;1.00;;;;;;5033569;28;20522;-74
2021/12/17 02:53:14;;;;;;;9.43;4.33;;;6.40;1.00;;;;;;5032868;28;20490;-74
2021/12/17 02:55:43;;;;;;;12.70;3.60;;;6.50;1.00;;;;;;5033454;28;20437;-74
2021/12/17 02:58:09;;;;;;;9.60;4.13;;;6.50;1.00;;;;;;5033614;28;20867;-74
2021/12/17 03:00:38;;;;;;;5.93;3.23;;;6.40;1.00;;;;;;5031826;28;20454;-74
2021/12/17 03:03:06;;;;;;;8.07;4.53;;;6.30;1.00;;;;;;5032381;28;20394;-71
2021/12/17 03:05:33;;;;;;;5.60;4.20;;;6.30;1.00;;;;;;5033002;28;20560;-71
2021/12/17 03:07:59;;;;;;;8.03;4.67;;;6.20;1.00;;;;;;5033305;28;20414;-70
2021/12/17 03:10:26;;;;;;;7.97;4.20;;;6.20;1.00;;;;;;5033127;28;20409;-73
2021/12/17 03:12:59;;;;;;;4.87;3.80;;;6.20;1.50;;;;;;5032532;28;20505;-75
2021/12/17 03:15:36;;;;;;;8.53;4.00;;;6.30;5.80;;;;;;5033113;28;20441;-74
2021/12/17 03:23:40;;;;;;;10.50;3.87;;;6.40;9.30;;;;;;5032337;28;20477;-71
2021/12/17 03:26:06;;;;;;;6.70;4.00;;;6.40;10.30;;;;;;5032958;28;20448;-71
2021/12/17 03:28:33;;;;;;;9.60;4.23;;;6.40;8.10;;;;;;5033175;28;20391;-74
2021/12/17 03:31:00;;;;;;;9.80;4.37;;;6.40;9.10;;;;;;5031664;28;21795;-74
2021/12/17 03:33:25;;;;;;;5.30;3.83;;;6.40;8.90;;;;;;5032310;28;20493;-74
2021/12/17 03:35:52;;;;;;;9.43;3.57;;;6.40;8.30;;;;;;5030502;28;21006;-74
2021/12/17 03:38:18;;;;;;;9.43;4.10;;;6.40;9.60;;;;;;5012688;28;20187;-71
2021/12/17 03:40:46;;;;;;;3.60;2.80;;;6.40;9.00;;;;;;5028374;28;20458;-74
2021/12/17 03:43:13;;;;;;;8.87;4.00;;;6.40;10.50;;;;;;5032164;28;20441;-74
2021/12/17 03:45:40;;;;;;;7.00;3.60;;;6.40;10.60;;;;;;5032686;28;20441;-71
2021/12/17 03:48:07;;;;;;;9.63;3.17;;;6.40;10.50;;;;;;5032719;28;20426;-72
2021/12/17 03:50:37;;;;;;;5.53;3.60;;;6.40;11.90;;;;;;5031562;28;20911;-74
2021/12/17 03:53:07;;;;;;;9.00;3.20;;;6.50;15.00;;;;;;5032060;28;20406;-70
2021/12/17 03:55:33;;;;;;;7.10;3.50;;;6.50;18.00;;;;;;5031971;28;20492;-72
2021/12/17 03:57:59;;;;;;;3.50;2.70;;;6.60;18.00;;;;;;5032829;28;20488;-75
2021/12/17 04:00:26;;;;;;;3.43;2.87;;;6.40;14.90;;;;;;5032625;28;20203;-74
2021/12/17 04:02:51;;;;;;;3.53;3.23;;;6.50;18.00;;;;;;5031815;28;20493;-74
2021/12/17 04:05:17;;;;;;;2.50;2.30;;;6.50;18.00;;;;;;5032543;28;20493;-73
2021/12/17 04:07:43;;;;;;;2.93;2.30;;;6.60;18.10;;;;;;5032806;28;20171;-73
2021/12/17 04:10:09;;;;;;;2.77;2.00;;;6.60;18.00;;;;;;5032819;28;20639;-71
2021/12/17 04:12:51;;;;;;;3.20;2.90;;;6.50;16.40;;;;;;5031546;28;20180;-72
2021/12/17 04:15:17;;;;;;;4.53;2.20;;;6.50;15.80;;;;;;5031973;28;20414;-71
2021/12/17 04:17:53;;;;;;;2.13;1.90;;;6.30;5.70;;;;;;5032467;28;20481;-74
2021/12/17 04:20:19;;;;;;;5.20;2.50;;;6.30;7.70;;;;;;5036637;28;20730;-74
2021/12/17 04:22:45;;;;;;;3.63;2.73;;;6.40;10.90;;;;;;5035363;28;20434;-74
2021/12/17 04:25:10;;;;;;;2.10;1.57;;;6.40;12.40;;;;;;5035323;28;20245;-72
2021/12/17 04:27:36;;;;;;;4.77;3.00;;;6.40;12.00;;;;;;5036302;28;20179;-75
2021/12/17 04:30:02;;;;;;;15.13;3.30;;;6.40;10.40;;;;;;5035124;28;20652;-71
2021/12/17 04:32:28;;;;;;;3.03;2.73;;;6.30;9.80;;;;;;5035360;28;20179;-74
2021/12/17 04:34:53;;;;;;;5.63;4.20;;;6.30;10.30;;;;;;5035866;28;20488;-74
2021/12/17 04:37:19;;;;;;;3.43;3.10;;;6.30;9.10;;;;;;5035793;28;20203;-71
2021/12/17 04:39:45;;;;;;;6.10;3.40;;;6.30;11.70;;;;;;5036224;28;20199;-73
2021/12/17 04:45:11;;;;;;;7.30;4.23;;;6.40;13.40;;;;;;5053773;28;20267;-72
2021/12/17 04:58:34;;;;;;;11.23;3.93;;;6.40;8.60;;;;;;5035865;28;20412;-74
2021/12/17 05:01:02;;;;;;;6.27;4.00;;;6.30;8.80;;;;;;5034961;28;20450;-74
2021/12/17 05:03:28;;;;;;;6.33;4.17;;;6.30;11.90;;;;;;5034775;28;20625;-74
2021/12/17 05:05:53;;;;;;;6.53;3.70;;;6.40;13.50;;;;;;5035333;28;20441;-72
2021/12/17 05:08:22;;;;;;;6.57;4.83;;;6.40;13.70;;;;;;5034537;28;21087;-74
2021/12/17 05:11:18;;;;;;;4.73;4.23;;;6.50;14.80;;;;;;5035070;28;20221;-72
2021/12/17 05:19:45;;;;;;;6.90;3.03;;;6.30;9.10;;;;;;5035583;28;20412;-71
2021/12/17 05:22:12;;;;;;;5.87;3.77;;;6.20;5.70;;;;;;5034222;28;20517;-72
2021/12/17 05:24:37;;;;;;;6.17;4.03;;;6.20;7.00;;;;;;5035369;28;20407;-71
2021/12/17 05:27:04;;;;;;;6.13;3.50;;;6.20;8.60;;;;;;5034147;28;20444;-72
2021/12/17 05:29:30;;;;;;;7.20;4.03;;;6.10;5.60;;;;;;5034411;28;20170;-71
2021/12/17 05:31:56;;;;;;;5.50;3.87;;;6.00;5.70;;;;;;5034695;28;20992;-73
2021/12/17 05:34:22;;;;;;;5.17;3.17;;;6.10;11.40;;;;;;5034646;28;20233;-71
2021/12/17 05:36:47;;;;;;;3.53;2.80;;;6.10;12.80;;;;;;5034756;28;20548;-75
2021/12/17 05:39:13;;;;;;;9.53;4.13;;;6.10;13.20;;;;;;5034893;28;20422;-72
2021/12/17 05:41:39;;;;;;;5.23;3.40;;;6.10;11.80;;;;;;5035004;28;20206;-74
2021/12/17 05:44:05;;;;;;;7.23;3.47;;;6.20;15.60;;;;;;5033880;28;20182;-74
2021/12/17 05:46:48;;;;;;;8.87;4.00;;;6.20;17.70;;;;;;5034655;28;20191;-74
2021/12/17 05:49:15;;;;;;;3.90;3.13;;;6.20;17.70;;;;;;5034507;28;20429;-74
2021/12/17 05:51:40;;;;;;;5.47;3.53;;;6.30;17.80;;;;;;5033765;28;20476;-73
2021/12/17 05:54:06;;;;;;;4.53;3.60;;;6.20;12.70;;;;;;5033274;28;20458;-74
2021/12/17 05:56:32;;;;;;;4.30;2.93;;;6.10;11.50;;;;;;5034840;28;20237;-74
2021/12/17 05:58:57;;;;;;;5.67;3.63;;;6.00;5.50;;;;;;5034581;28;20242;-72
2021/12/17 06:01:23;;;;;;;5.03;3.10;;;5.90;6.90;;;;;;5033196;28;20209;-70
2021/12/17 06:03:49;;;;;;;5.23;2.87;;;5.90;5.40;;;;;;5033500;28;20163;-74
2021/12/17 06:06:35;;;;;;;5.73;2.50;;;5.80;4.50;;;;;;5034006;28;20198;-72
2021/12/17 06:09:05;;;;;;;5.10;3.00;;;5.80;6.30;;;;;;5031280;28;20184;-71
2021/12/17 06:11:30;;;;;;;3.40;3.20;;;5.80;8.50;;;;;;5014759;28;20443;-75
2021/12/17 06:13:56;;;;;;;3.70;3.40;;;5.90;13.50;;;;;;5020209;28;20468;-74
2021/12/17 06:16:21;;;;;;;5.57;3.40;;;5.90;13.40;;;;;;5034432;28;20200;-72
2021/12/17 06:18:47;;;;;;;5.13;3.70;;;5.90;11.60;;;;;;5034131;28;20171;-75
2021/12/17 06:21:13;;;;;;;5.87;3.57;;;5.90;13.60;;;;;;5034304;28;20211;-75
2021/12/17 06:23:38;;;;;;;6.63;4.20;;;5.90;14.10;;;;;;5033197;28;20168;-76
2021/12/17 06:26:05;;;;;;;5.33;3.33;;;5.90;14.60;;;;;;5033394;28;20591;-76
2021/12/17 06:28:31;;;;;;;6.13;4.90;;;5.90;13.30;;;;;;5034088;28;20704;-75
2021/12/17 06:30:56;;;;;;;7.50;3.70;;;5.90;12.50;;;;;;5034086;28;20489;-72
2021/12/17 06:33:22;;;;;;;3.30;2.97;;;5.90;14.10;;;;;;5032960;28;20422;-74
2021/12/17 06:35:48;;;;;;;4.30;3.10;;;5.90;11.90;;;;;;5014348;28;20330;-76
2021/12/17 06:38:14;;;;;;;5.27;3.70;;;5.90;9.90;;;;;;5014206;28;20421;-76
2021/12/17 06:40:40;;;;;;;4.40;3.50;;;5.80;10.30;;;;;;5032107;28;20195;-76
2021/12/17 06:43:06;;;;;;;6.13;3.70;;;5.80;11.00;;;;;;5031664;28;20415;-77
2021/12/17 06:45:48;;;;;;;7.00;3.87;;;5.80;10.30;;;;;;5032836;28;20592;-76
2021/12/17 06:48:14;;;;;;;4.30;3.87;;;5.80;11.50;;;;;;5033708;28;20245;-77
2021/12/17 06:59:20;;;;;;;7.00;4.10;;;5.90;11.60;;;;;;5013854;28;20417;-70
2021/12/17 07:10:13;;;;;;;5.80;3.67;;;5.90;13.30;;;;;;5033828;28;20404;-76
2021/12/17 07:18:00;;;;;;;6.70;4.90;;;6.00;13.70;;;;;;5033368;28;20663;-71
2021/12/17 07:23:46;;;;;;;4.37;3.97;;;5.90;10.20;;;;;;5031738;28;20419;-75
2021/12/17 07:33:59;;;;;;;6.77;4.47;;;5.90;14.10;;;;;;5032373;28;20437;-75
2021/12/17 07:36:24;;;;;;;5.37;4.50;;;5.90;14.40;;;;;;5033038;28;20441;-75
2021/12/17 07:38:50;;;;;;;4.90;4.40;;;5.90;14.90;;;;;;5032809;28;20430;-75
2021/12/17 07:41:17;;;;;;;8.50;4.63;;;6.00;15.10;;;;;;5033001;28;20198;-72
2021/12/17 07:43:55;;;;;;;5.20;4.03;;;5.90;14.20;;;;;;5031355;28;20195;-72
2021/12/17 07:46:23;;;;;;;9.40;4.30;;;6.00;17.60;;;;;;5033029;28;20410;-71
2021/12/17 07:48:48;;;;;;;5.37;4.17;;;6.00;15.60;;;;;;5032656;28;20983;-70
2021/12/17 07:51:17;;;;;;;4.03;3.27;;;5.90;17.50;;;;;;5032890;28;20517;-75
2021/12/17 07:53:42;;;;;;;5.27;4.77;;;6.00;17.60;;;;;;5035137;28;20168;-74
2021/12/17 07:56:11;;;;;;;7.17;4.60;;;6.00;22.10;;;;;;5037048;28;20441;-71
2021/12/17 07:58:37;;;;;;;5.47;4.80;;;6.00;24.90;;;;;;5023513;28;20840;-71
2021/12/17 08:01:03;;;;;;;5.90;4.77;;;6.00;26.20;;;;;;5016985;28;20494;-74
2021/12/17 08:03:29;;;;;;;4.53;3.90;;;6.00;29.10;;;;;;5015875;28;20868;-72
2021/12/17 08:05:55;;;;;;;4.93;4.20;;;6.10;43.10;;;;;;5017038;28;20433;-74
2021/12/17 08:08:21;;;;;;;4.73;3.90;;;6.10;43.20;;;;;;5017311;28;20160;-70
2021/12/17 08:10:48;;;;;;;6.90;5.67;;;6.20;43.40;;;;;;5016920;28;20888;-74
2021/12/17 08:13:24;;;;;;;5.00;3.80;;;6.20;43.20;;;;;;5016358;28;20401;-74
2021/12/17 08:18:47;;;;;;;4.10;3.50;;;6.20;43.60;;;;;;5016714;28;20411;-70
2021/12/17 08:31:28;;;;;;;3.10;2.80;;;6.10;39.80;;;;;;5016888;28;20734;-71
2021/12/17 08:33:54;;;;;;;4.07;3.03;;;6.10;39.50;;;;;;5015937;28;20418;-71
2021/12/17 08:36:20;;;;;;;4.70;2.97;;;6.10;40.70;;;;;;5031691;28;20792;-75
2021/12/17 08:38:49;;;;;;;3.37;3.07;;;6.10;41.90;;;;;;5035301;28;20791;-72
2021/12/17 08:41:16;;;;;;;3.70;3.07;;;6.20;43.20;;;;;;5036096;28;20656;-74
2021/12/17 08:43:42;;;;;;;3.40;3.10;;;6.20;42.30;;;;;;5035135;28;20414;-70
2021/12/17 08:46:09;;;;;;;8.33;3.33;;;6.20;43.20;;;;;;5036115;28;20915;-70
2021/12/17 08:48:35;;;;;;;6.43;3.50;;;6.30;43.30;;;;;;5035794;28;20903;-70
2021/12/17 08:51:02;;;;;;;6.37;3.37;;;6.30;40.10;;;;;;5032540;28;20529;-71
2021/12/17 08:53:28;;;;;;;6.33;3.17;;;6.30;40.00;;;;;;5034571;28;20740;-75
2021/12/17 08:55:53;;;;;;;8.00;3.67;;;6.30;39.80;;;;;;5035192;28;20453;-75
2021/12/17 08:58:19;;;;;;;5.67;3.87;;;6.30;34.10;;;;;;5036096;28;20164;-74
2021/12/17 09:00:46;;;;;;;3.70;3.23;;;6.30;33.50;;;;;;5034755;28;20190;-72
2021/12/17 09:03:12;;;;;;;4.37;3.80;;;6.30;36.30;;;;;;5034822;28;20645;-70
2021/12/17 09:05:39;;;;;;;4.20;3.80;;;6.30;35.10;;;;;;5034625;28;20512;-71
2021/12/17 09:08:06;;;;;;;6.10;4.30;;;6.40;36.20;;;;;;5035739;28;20774;-74
2021/12/17 09:10:33;;;;;;;4.63;4.10;;;6.30;34.40;;;;;;5035373;28;20410;-71
2021/12/17 09:12:59;;;;;;;11.70;3.83;;;6.30;32.60;;;;;;5034349;28;20398;-74
2021/12/17 09:15:25;;;;;;;2.50;2.30;;;6.30;31.90;;;;;;5035123;28;20488;-74
2021/12/17 09:17:51;;;;;;;3.87;3.50;;;6.30;33.70;;;;;;5035578;28;20493;-74
2021/12/17 09:20:17;;;;;;;3.97;3.03;;;6.30;35.70;;;;;;5034983;28;20541;-71
2021/12/17 09:22:43;;;;;;;2.90;2.70;;;6.30;36.30;;;;;;5034589;28;20160;-71
2021/12/17 09:25:09;;;;;;;4.57;3.10;;;6.40;38.30;;;;;;5034617;28;20395;-72
2021/12/17 09:27:35;;;;;;;3.50;3.20;;;6.40;37.50;;;;;;5034813;28;21114;-70
2021/12/17 09:30:00;;;;;;;3.40;3.10;;;6.40;37.60;;;;;;5035274;28;20405;-74
2021/12/17 09:32:26;;;;;;;2.50;2.17;;;6.50;40.70;;;;;;5016513;28;20173;-74
2021/12/17 09:34:52;;;;;;;2.87;2.63;;;6.50;40.60;;;;;;5016471;28;20526;-71
2021/12/17 09:37:18;;;;;;;5.70;3.33;;;6.60;43.60;;;;;;5034662;28;20207;-75
2021/12/17 09:39:44;;;;;;;3.50;3.20;;;6.60;40.20;;;;;;5034795;28;20211;-75
2021/12/17 09:42:10;;;;;;;4.00;3.47;;;6.60;42.20;;;;;;5033989;28;20191;-74
2021/12/17 09:44:36;;;;;;;3.20;2.90;;;6.70;43.70;;;;;;5032912;28;20450;-70
2021/12/17 09:47:02;;;;;;;2.97;2.73;;;6.70;43.70;;;;;;5033427;28;20438;-75
2021/12/17 09:49:28;;;;;;;3.83;3.40;;;6.80;43.90;;;;;;5034962;28;20266;-71
2021/12/17 09:51:56;;;;;;;3.37;2.90;;;6.90;43.90;;;;;;5033091;28;20434;-71
2021/12/17 09:54:22;;;;;;;3.43;3.13;;;6.90;43.90;;;;;;5033097;28;20418;-73
2021/12/17 09:56:48;;;;;;;7.40;3.40;;;7.00;44.80;;;;;;5033474;28;20434;-75
2021/12/17 09:59:15;;;;;;;5.30;3.40;;;7.00;44.00;;;;;;5034709;28;20405;-74
2021/12/17 10:01:42;;;;;;;3.47;3.17;;;7.00;43.70;;;;;;5034443;28;21207;-73
2021/12/17 10:04:15;;;;;;;5.43;3.30;;;7.00;40.10;;;;;;5033420;28;20406;-71
2021/12/17 10:06:42;;;;;;;3.80;3.00;;;7.10;40.30;;;;;;5033493;28;20899;-74
2021/12/17 10:09:08;;;;;;;3.47;3.17;;;7.10;39.10;;;;;;5033285;28;20418;-71
2021/12/17 10:11:33;;;;;;;5.37;3.97;;;7.10;33.10;;;;;;5033687;28;20426;-71
2021/12/17 10:14:22;;;;;;;4.10;3.43;;;7.10;33.60;;;;;;5032863;28;21005;-75
2021/12/17 10:16:48;;;;;;;5.00;3.20;;;7.30;35.10;;;;;;5033053;28;20423;-74
2021/12/17 10:19:44;;;;;;;4.37;3.37;;;7.30;30.00;;;;;;5033987;28;20422;-72
2021/12/17 10:22:11;;;;;;;2.90;2.70;;;7.30;30.00;;;;;;5032488;28;20254;-75
2021/12/17 10:24:38;;;;;;;2.80;2.60;;;7.20;18.70;;;;;;5024865;28;20407;-74
2021/12/17 10:27:25;;;;;;;3.73;2.80;;;7.30;21.20;;;;;;5014543;28;20793;-74
2021/12/17 10:29:51;;;;;;;4.13;2.80;;;7.40;21.70;;;;;;5025261;28;20476;-71
2021/12/17 10:32:19;;;;;;;3.03;2.73;;;7.40;18.70;;;;;;5033448;28;20748;-71
2021/12/17 10:35:05;;;;;;;4.33;3.23;;;7.50;18.80;;;;;;5033677;28;20436;-75
2021/12/17 10:37:40;;;;;;;2.90;2.70;;;7.50;18.70;;;;;;5034231;28;20395;-71
2021/12/17 10:40:20;;;;;;;3.70;3.40;;;7.60;13.90;;;;;;5033748;28;20525;-74
2021/12/17 10:42:54;;;;;;;3.03;2.73;;;7.50;6.70;;;;;;5030293;28;20418;-72
2021/12/17 10:45:27;;;;;;;6.37;3.27;;;7.50;7.40;;;;;;5033989;28;20394;-71
2021/12/17 10:50:53;;;;;;;2.50;2.40;;;7.70;6.80;;;;;;5034197;28;20574;-72
2021/12/17 10:53:24;;;;;;;3.07;2.87;;;7.70;8.00;;;;;;5032273;28;20419;-75
2021/12/17 10:55:49;;;;;;;3.40;3.00;;;7.80;8.30;;;;;;5033633;28;20430;-74
2021/12/17 10:58:15;;;;;;;5.30;3.50;;;7.80;7.50;;;;;;5031909;28;20509;-72
2021/12/17 11:01:05;;;;;;;5.00;3.13;;;7.90;5.00;;;;;;5026795;28;20709;-72
2021/12/17 11:03:41;;;;;;;3.83;2.97;;;7.90;1.40;;;;;;5032808;28;20175;-74
2021/12/17 11:06:08;;;;;;;4.27;2.93;;;7.90;1.00;;;;;;5033181;28;20422;-74
2021/12/17 11:08:37;;;;;;;3.13;2.83;;;7.90;1.00;;;;;;5033480;28;20450;-71
2021/12/17 11:11:10;;;;;;;2.80;2.30;;;7.90;1.00;;;;;;5033205;28;20878;-74
2021/12/17 11:13:51;;;;;;;2.57;1.73;;;7.80;1.00;;;;;;5032634;28;20399;-75
2021/12/17 11:16:18;;;;;;;3.20;2.63;;;7.80;1.00;;;;;;5031565;28;20438;-75
2021/12/17 11:18:44;;;;;;;2.80;2.30;;;7.90;1.00;;;;;;5031674;28;20407;-75
2021/12/17 11:21:11;;;;;;;2.40;2.07;;;7.90;1.00;;;;;;5032465;28;20567;-72
2021/12/17 11:23:37;;;;;;;2.83;2.37;;;7.90;1.00;;;;;;5030708;28;20416;-72
2021/12/17 11:26:03;;;;;;;2.40;2.20;;;7.90;1.00;;;;;;5032857;28;20434;-74
2021/12/17 11:28:29;;;;;;;3.80;2.43;;;7.90;1.00;;;;;;5032783;28;20963;-70
2021/12/17 11:30:55;;;;;;;2.67;1.87;;;8.00;1.00;;;;;;5032858;28;20434;-72
2021/12/17 11:33:20;;;;;;;2.37;2.17;;;8.00;1.00;;;;;;5032036;28;20172;-71
2021/12/17 11:35:49;;;;;;;3.40;2.13;;;8.00;1.00;;;;;;5031185;28;20546;-71
2021/12/17 11:38:52;;;;;;;1.60;1.50;;;8.00;1.00;;;;;;5033044;28;20649;-72
2021/12/17 11:41:29;;;;;;;2.70;2.17;;;8.00;1.00;;;;;;5031513;28;20875;-74
2021/12/17 11:44:01;;;;;;;2.27;2.07;;;8.00;1.00;;;;;;5032173;28;20414;-71
2021/12/17 11:46:30;;;;;;;2.00;1.90;;;7.90;1.00;;;;;;5032564;28;20430;-73
2021/12/17 11:49:15;;;;;;;1.40;1.30;;;8.00;1.00;;;;;;5032514;28;20414;-75
2021/12/17 11:51:41;;;;;;;1.67;1.57;;;8.10;1.00;;;;;;5032460;28;20428;-74
2021/12/17 11:54:15;;;;;;;3.43;2.30;;;8.10;1.00;;;;;;5031529;28;20401;-72
2021/12/17 11:56:55;;;;;;;1.80;1.70;;;8.10;1.00;;;;;;5032209;28;20443;-74
2021/12/17 11:59:27;;;;;;;2.30;1.90;;;8.00;1.00;;;;;;5032937;28;20413;-74
2021/12/17 12:02:22;;;;;;;2.03;1.93;;;8.00;1.00;;;;;;5032211;28;20451;-74
2021/12/17 12:04:56;;;;;;;1.70;1.60;;;7.90;1.00;;;;;;5032626;28;20462;-73
2021/12/17 12:07:24;;;;;;;2.40;2.20;;;7.90;1.00;;;;;;5032578;28;20939;-72
2021/12/17 12:09:55;;;;;;;2.10;1.97;;;8.00;1.00;;;;;;5032811;28;20997;-75
2021/12/17 12:12:21;;;;;;;2.53;2.33;;;8.10;4.90;;;;;;5031730;28;20470;-71
2021/12/17 12:14:47;;;;;;;2.23;2.13;;;8.10;3.70;;;;;;5030992;28;20935;-72
2021/12/17 12:17:12;;;;;;;2.47;2.30;;;8.00;5.60;;;;;;5032286;28;20445;-71
2021/12/17 12:19:49;;;;;;;2.40;2.20;;;8.10;8.60;;;;;;5032511;28;20178;-74
2021/12/17 12:22:28;;;;;;;2.47;2.27;;;8.20;11.20;;;;;;5031414;28;20171;-73
2021/12/17 12:25:28;;;;;;;2.40;2.20;;;8.20;11.60;;;;;;5032581;28;20440;-75
2021/12/17 12:27:53;;;;;;;3.53;2.73;;;8.10;10.10;;;;;;5012882;28;20765;-70
2021/12/17 12:30:38;;;;;;;2.83;2.63;;;8.10;13.20;;;;;;5029101;28;20419;-74
2021/12/17 12:33:05;;;;;;;3.03;2.67;;;8.10;17.20;;;;;;5030790;28;20168;-74
2021/12/17 12:35:32;;;;;;;2.60;2.40;;;8.10;19.20;;;;;;5032129;28;20426;-75
2021/12/17 12:38:20;;;;;;;2.40;2.20;;;8.20;23.30;;;;;;5032531;28;20433;-72
2021/12/17 12:40:56;;;;;;;1.70;1.60;;;8.20;23.50;;;;;;5035060;28;20431;-75
2021/12/17 12:43:28;;;;;;;2.53;2.30;;;8.30;25.20;;;;;;5034171;28;20991;-73
2021/12/17 12:45:54;;;;;;;2.50;2.27;;;8.30;28.80;;;;;;5035894;28;20424;-74
2021/12/17 12:48:38;;;;;;;2.80;2.60;;;8.40;31.00;;;;;;5034849;28;20409;-73
2021/12/17 12:51:19;;;;;;;2.40;2.20;;;8.50;31.20;;;;;;5034417;28;20518;-75
2021/12/17 12:54:06;;;;;;;2.00;1.90;;;8.40;24.30;;;;;;5034297;28;20506;-74
2021/12/17 12:56:32;;;;;;;2.10;2.00;;;8.30;23.70;;;;;;5035639;28;20439;-72
2021/12/17 12:58:58;;;;;;;2.47;2.27;;;8.30;24.80;;;;;;5025490;28;20425;-72
2021/12/17 13:01:25;;;;;;;3.20;2.87;;;8.30;24.60;;;;;;5022742;28;20505;-71
2021/12/17 13:03:51;;;;;;;2.40;2.30;;;8.30;25.30;;;;;;5029838;28;20449;-75
2021/12/17 13:06:19;;;;;;;4.70;2.80;;;8.40;27.10;;;;;;5024631;28;20434;-75
2021/12/17 13:08:59;;;;;;;3.30;2.90;;;8.40;27.40;;;;;;5025419;28;20529;-74
2021/12/17 13:11:26;;;;;;;3.17;2.97;;;8.40;24.00;;;;;;5025237;28;20760;-74
2021/12/17 13:13:58;;;;;;;2.77;2.57;;;8.40;25.30;;;;;;5033814;28;20503;-73
2021/12/17 13:21:43;;;;;;;3.00;2.80;;;8.40;27.50;;;;;;5029385;28;21010;-74
2021/12/17 13:24:14;;;;;;;2.77;2.57;;;8.50;28.40;;;;;;5034124;28;20430;-74
2021/12/17 13:26:48;;;;;;;2.97;2.57;;;8.50;28.20;;;;;;5024841;28;20409;-71
2021/12/17 13:29:17;;;;;;;2.63;2.43;;;8.50;26.20;;;;;;5015523;28;20833;-74
2021/12/17 13:32:03;;;;;;;3.50;2.83;;;8.50;26.70;;;;;;5028543;28;20414;-73
2021/12/17 13:34:33;;;;;;;3.60;3.30;;;8.50;27.60;;;;;;5032091;28;20434;-72
2021/12/17 13:37:13;;;;;;;7.43;4.27;;;8.60;27.30;;;;;;5019440;28;20451;-72
2021/12/17 13:39:52;;;;;;;3.70;3.40;;;8.60;26.70;;;;;;5027141;28;20423;-72
2021/12/17 13:42:19;;;;;;;4.20;3.80;;;8.60;26.50;;;;;;5034152;28;20417;-75
2021/12/17 13:44:50;;;;;;;4.63;3.60;;;8.60;26.80;;;;;;5024564;28;20525;-71
2021/12/17 13:47:18;;;;;;;3.47;3.13;;;8.60;24.70;;;;;;5034853;28;20470;-74
2021/12/17 13:49:51;;;;;;;3.00;2.70;;;8.50;24.60;;;;;;5034598;28;20499;-73
2021/12/17 13:52:20;;;;;;;3.90;2.80;;;8.50;25.30;;;;;;5034015;28;20410;-74
2021/12/17 13:54:47;;;;;;;3.53;3.27;;;8.50;26.40;;;;;;5021394;28;20471;-74
2021/12/17 13:57:16;;;;;;;2.77;2.57;;;8.60;28.60;;;;;;5034689;28;20971;-72
2021/12/17 13:59:43;;;;;;;2.70;2.50;;;8.60;28.10;;;;;;5016478;28;20446;-74
2021/12/17 14:02:21;;;;;;;3.17;2.87;;;8.60;28.50;;;;;;5033332;28;20440;-74
2021/12/17 14:05:15;;;;;;;2.93;2.77;;;8.60;29.20;;;;;;5034461;28;20441;-74
2021/12/17 14:07:47;;;;;;;3.73;3.40;;;8.70;28.60;;;;;;5034563;28;20396;-71
2021/12/17 14:10:26;;;;;;;3.90;3.53;;;8.60;27.40;;;;;;5028569;28;20415;-73
2021/12/17 14:12:53;;;;;;;4.30;3.80;;;8.60;27.90;;;;;;5016293;28;20525;-72
2021/12/17 14:15:26;;;;;;;5.20;4.70;;;8.70;28.20;;;;;;5026171;28;20420;-73
2021/12/17 14:18:14;;;;;;;3.20;2.90;;;8.70;27.00;;;;;;5015378;28;20457;-73
2021/12/17 14:20:45;;;;;;;4.53;3.70;;;8.70;28.50;;;;;;5029016;28;20449;-75
2021/12/17 14:23:14;;;;;;;2.97;2.67;;;8.70;28.40;;;;;;5030137;28;20467;-74
2021/12/17 14:25:42;;;;;;;2.93;2.73;;;8.70;27.10;;;;;;5026039;28;20410;-74
2021/12/17 14:28:17;;;;;;;4.17;3.37;;;8.70;28.10;;;;;;5030420;28;20942;-71
2021/12/17 14:30:56;;;;;;;3.97;3.10;;;8.70;27.00;;;;;;5032811;28;20421;-73
2021/12/17 14:33:28;;;;;;;4.53;3.90;;;8.80;27.70;;;;;;5027145;28;20458;-72
2021/12/17 14:35:57;;;;;;;2.73;2.53;;;8.70;26.00;;;;;;5014217;28;20426;-74
2021/12/17 14:38:57;;;;;;;3.17;2.27;;;8.60;25.40;;;;;;5031277;28;20476;-74
2021/12/17 14:41:32;;;;;;;2.87;2.67;;;8.60;25.70;;;;;;5033395;28;20459;-72
2021/12/17 14:44:08;;;;;;;4.10;3.10;;;8.60;26.80;;;;;;5032346;28;20514;-74
2021/12/17 14:46:49;;;;;;;3.37;3.17;;;8.60;27.30;;;;;;5020724;28;20497;-75
2021/12/17 15:05:58;;;;;;;2.77;2.50;;;8.40;31.10;;;;;;5033161;28;20457;-74
2021/12/17 15:08:25;;;;;;;2.70;2.50;;;8.40;31.30;;;;;;5033295;28;20417;-73
2021/12/17 15:10:52;;;;;;;2.93;2.63;;;8.40;38.50;;;;;;5023169;28;20464;-72
2021/12/17 15:13:18;;;;;;;2.47;2.30;;;8.40;45.40;;;;;;5018503;28;20452;-72
2021/12/17 15:15:44;;;;;;;2.43;2.23;;;8.40;45.50;;;;;;5017394;28;20837;-75
2021/12/17 15:18:14;;;;;;;2.97;2.57;;;8.50;50.00;;;;;;5022545;28;20174;-74
2021/12/17 15:20:43;;;;;;;3.90;3.00;;;8.40;50.40;;;;;;5032861;28;20429;-75
2021/12/17 15:23:09;;;;;;;3.20;2.97;;;8.40;51.20;;;;;;5030299;28;20415;-73
2021/12/17 15:25:38;;;;;;;2.90;2.57;;;8.50;53.10;;;;;;5024847;28;20441;-75
2021/12/17 15:28:05;;;;;;;3.70;3.00;;;8.50;51.50;;;;;;5032743;28;20177;-76
2021/12/17 15:30:34;;;;;;;3.90;2.50;;;8.50;50.60;;;;;;5033210;28;20489;-75
2021/12/17 15:33:00;;;;;;;3.77;3.20;;;8.50;51.00;;;;;;5029844;28;20505;-74
2021/12/17 15:35:27;;;;;;;3.63;3.33;;;8.50;47.50;;;;;;5023415;28;20530;-72
2021/12/17 15:37:55;;;;;;;2.70;2.50;;;8.40;45.50;;;;;;5031999;28;20421;-74
2021/12/17 15:40:22;;;;;;;3.10;2.80;;;8.20;45.20;;;;;;5022036;28;20468;-74
2021/12/17 15:42:48;;;;;;;3.60;2.83;;;8.20;45.20;;;;;;5012544;28;20401;-73
2021/12/17 15:45:15;;;;;;;3.77;3.40;;;8.20;45.30;;;;;;5013100;28;20391;-75
2021/12/17 15:47:41;;;;;;;3.23;3.03;;;8.30;47.00;;;;;;5013381;28;20407;-74
2021/12/17 15:50:10;;;;;;;2.83;2.63;;;8.30;47.50;;;;;;5013123;28;20400;-73
2021/12/17 15:52:45;;;;;;;3.10;2.90;;;8.40;48.80;;;;;;5012585;28;20434;-74
2021/12/17 15:55:12;;;;;;;3.63;3.20;;;8.40;48.40;;;;;;5013345;28;20404;-73
2021/12/17 15:57:38;;;;;;;3.47;3.17;;;8.40;46.90;;;;;;5012151;28;20749;-74
2021/12/17 16:00:05;;;;;;;3.33;3.13;;;8.40;45.40;;;;;;5013090;28;20493;-73
2021/12/17 16:02:31;;;;;;;2.87;2.60;;;8.40;45.50;;;;;;5012496;28;20174;-74
2021/12/17 16:04:57;;;;;;;6.27;4.27;;;8.50;45.60;;;;;;5013146;28;20958;-74
2021/12/17 16:07:22;;;;;;;4.63;3.77;;;8.40;43.40;;;;;;5013081;28;20263;-74
2021/12/17 16:22:52;;;;;;;2.57;2.37;;;8.30;31.00;;;;;;5016202;28;20497;-72
2021/12/17 16:25:17;;;;;;;3.03;2.83;;;8.30;31.00;;;;;;5016807;28;20409;-74
2021/12/17 16:27:43;;;;;;;2.70;2.50;;;8.30;31.00;;;;;;5016861;28;20534;-74
2021/12/17 16:30:10;;;;;;;2.40;2.27;;;8.20;29.20;;;;;;5016769;28;20177;-74
2021/12/17 16:32:36;;;;;;;2.50;2.30;;;8.20;29.70;;;;;;5015718;28;20637;-73
2021/12/17 16:35:02;;;;;;;2.73;2.50;;;8.20;26.60;;;;;;5015915;28;20405;-74